Time;durP1;ratioP1;P1;durP2;ratioP2;P2;SDS_P1;SDS_P2;PMS_P1;PMS_P2;Temp;Humidity;BMP_temperature;BMP_pressure;BME280_temperature;BME280_humidity;BME280_pressure;Samples;Min_cycle;Max_cycle;Signal;HPM_P1;HPM_P2
2023/01/01 00:00:43;;;;;;;3.67;3.37;;;;;17.20;99905.00;;;;2063249;28;20221;-55
2023/01/01 00:01:43;;;;;;;3.80;3.40;;;;;17.20;99904.00;;;;2065227;28;20217;-54
2023/01/01 00:02:43;;;;;;;3.77;3.20;;;;;17.20;99919.00;;;;2067259;28;20241;-54
2023/01/01 00:03:48;;;;;;;3.83;3.43;;;;;17.20;99904.00;;;;2067131;28;20216;-54
2023/01/01 00:04:48;;;;;;;3.80;3.38;;;;;17.10;99923.00;;;;2071140;28;20224;-54
2023/01/01 00:05:48;;;;;;;3.70;3.30;;;;;17.20;99909.00;;;;2071284;28;20230;-54
2023/01/01 00:06:49;;;;;;;4.40;3.53;;;;;17.20;99919.00;;;;2071325;28;20211;-54
2023/01/01 00:07:49;;;;;;;3.80;3.50;;;;;17.20;99918.00;;;;2063769;28;20216;-54
2023/01/01 00:10:26;;;;;;;3.77;3.47;;;;;17.20;99924.00;;;;2068135;28;20210;-54
2023/01/01 00:10:28;;;;;;;4.30;3.90;;;;;17.20;99925.00;;;;2070715;28;20275;-54
2023/01/01 00:11:29;;;;;;;3.65;3.30;;;;;17.20;99928.00;;;;2064252;28;20215;-54
2023/01/01 00:12:30;;;;;;;3.70;3.40;;;;;17.20;99920.00;;;;2064565;28;20696;-58
2023/01/01 00:13:31;;;;;;;3.60;3.28;;;;;17.20;99927.00;;;;2063067;28;20257;-54
2023/01/01 00:14:31;;;;;;;4.10;3.40;;;;;17.20;99926.00;;;;2063106;28;20219;-54
2023/01/01 00:15:32;;;;;;;3.50;3.20;;;;;17.20;99924.00;;;;2066665;28;20653;-53
2023/01/01 00:16:33;;;;;;;3.60;3.30;;;;;17.20;99933.00;;;;2062746;28;20306;-54
2023/01/01 00:17:33;;;;;;;4.07;3.55;;;;;17.20;99923.00;;;;2068705;28;20873;-53
2023/01/01 00:18:34;;;;;;;4.70;3.80;;;;;17.20;99921.00;;;;2070922;28;20274;-53
2023/01/01 00:19:34;;;;;;;3.70;3.40;;;;;17.20;99924.00;;;;2070892;28;20325;-53
2023/01/01 00:20:34;;;;;;;5.37;4.43;;;;;17.20;99921.00;;;;2068797;28;20231;-54
2023/01/01 00:21:35;;;;;;;4.30;3.90;;;;;17.20;99924.00;;;;2071105;28;20232;-53
2023/01/01 00:22:35;;;;;;;4.60;4.20;;;;;17.20;99914.00;;;;2070514;28;20231;-54
2023/01/01 00:23:35;;;;;;;4.10;3.70;;;;;17.20;99915.00;;;;2066864;28;20224;-53
2023/01/01 00:24:36;;;;;;;5.07;3.53;;;;;17.20;99918.00;;;;2062581;28;20249;-55
2023/01/01 00:25:36;;;;;;;4.63;4.23;;;;;17.20;99918.00;;;;2062804;28;20220;-55
2023/01/01 00:26:36;;;;;;;4.10;3.70;;;;;17.20;99916.00;;;;2054063;28;20226;-53
2023/01/01 00:27:37;;;;;;;3.93;3.23;;;;;17.20;99920.00;;;;2053979;28;20331;-53
2023/01/01 00:28:37;;;;;;;4.40;3.67;;;;;17.20;99921.00;;;;2062875;28;20225;-54
2023/01/01 00:29:37;;;;;;;4.53;4.10;;;;;17.20;99887.00;;;;2062828;28;20246;-53
2023/01/01 00:30:38;;;;;;;4.50;4.10;;;;;17.20;99918.00;;;;2062984;28;20242;-53
2023/01/01 00:31:39;;;;;;;4.93;4.10;;;;;17.20;99903.00;;;;2061894;28;20650;-53
2023/01/01 00:32:39;;;;;;;6.20;3.80;;;;;17.20;99911.00;;;;2062881;28;20455;-53
2023/01/01 00:33:39;;;;;;;4.83;3.67;;;;;17.20;99920.00;;;;2070536;28;20284;-53
2023/01/01 00:34:39;;;;;;;4.40;4.00;;;;;17.20;99923.00;;;;2070961;28;20247;-53
2023/01/01 00:35:40;;;;;;;4.00;3.60;;;;;17.20;99913.00;;;;2071043;28;20211;-53
2023/01/01 00:36:40;;;;;;;4.70;4.10;;;;;17.20;99917.00;;;;2070884;28;20227;-53
2023/01/01 00:37:40;;;;;;;5.03;4.20;;;;;17.20;99909.00;;;;2069470;28;20235;-53
2023/01/01 00:38:41;;;;;;;3.90;3.57;;;;;17.20;99915.00;;;;2062925;28;20306;-53
2023/01/01 00:39:42;;;;;;;4.33;3.70;;;;;17.20;99910.00;;;;2062065;28;20219;-53
2023/01/01 00:40:42;;;;;;;4.70;3.90;;;;;17.20;99919.00;;;;2062562;28;20462;-53
2023/01/01 00:41:42;;;;;;;4.40;4.00;;;;;17.20;99911.00;;;;2061710;28;20274;-54
2023/01/01 00:42:43;;;;;;;4.50;4.10;;;;;17.20;99919.00;;;;2061880;28;20811;-53
2023/01/01 00:43:43;;;;;;;4.13;3.83;;;;;17.20;99910.00;;;;2062792;28;20654;-53
2023/01/01 00:44:43;;;;;;;4.60;4.10;;;;;17.20;99929.00;;;;2062650;28;20224;-54
2023/01/01 00:45:46;;;;;;;4.90;4.40;;;;;17.20;99923.00;;;;2062922;28;20228;-54
2023/01/01 00:46:46;;;;;;;4.82;4.43;;;;;17.20;99922.00;;;;2062724;28;20279;-53
2023/01/01 00:47:47;;;;;;;5.23;4.40;;;;;17.20;99925.00;;;;2062983;28;20259;-53
2023/01/01 00:48:47;;;;;;;4.87;4.47;;;;;17.20;99922.00;;;;2062770;28;20291;-53
2023/01/01 00:49:48;;;;;;;4.70;4.27;;;;;17.20;99929.00;;;;2062579;28;20212;-53
2023/01/01 00:50:48;;;;;;;4.90;4.50;;;;;17.20;99935.00;;;;2062624;28;20315;-53
2023/01/01 00:51:49;;;;;;;4.67;4.27;;;;;17.20;99930.00;;;;2061568;28;20216;-54
2023/01/01 00:52:49;;;;;;;6.40;4.13;;;;;17.20;99935.00;;;;2061384;28;20543;-53
2023/01/01 00:53:50;;;;;;;5.67;5.13;;;;;17.20;99926.00;;;;2062067;28;20229;-53
2023/01/01 00:54:50;;;;;;;4.40;4.00;;;;;17.10;99942.00;;;;2061788;28;20208;-53
2023/01/01 00:55:50;;;;;;;5.40;4.90;;;;;17.20;99930.00;;;;2062144;28;20216;-54
2023/01/01 00:56:51;;;;;;;5.20;4.70;;;;;17.20;99928.00;;;;2062326;28;20701;-54
2023/01/01 00:57:51;;;;;;;5.33;4.83;;;;;17.20;99921.00;;;;2062094;28;20615;-54
2023/01/01 00:58:51;;;;;;;6.83;5.27;;;;;17.20;99928.00;;;;2062369;28;20572;-54
2023/01/01 00:59:52;;;;;;;4.67;4.27;;;;;17.20;99926.00;;;;2061409;28;20221;-54
2023/01/01 01:00:52;;;;;;;4.60;4.20;;;;;17.20;99928.00;;;;2062363;28;20319;-54
2023/01/01 01:01:52;;;;;;;5.70;4.70;;;;;17.20;99927.00;;;;2062597;28;20215;-54
2023/01/01 01:02:53;;;;;;;4.70;4.30;;;;;17.20;99929.00;;;;2069499;28;20211;-53
2023/01/01 01:03:53;;;;;;;5.77;4.80;;;;;17.20;99925.00;;;;2069537;28;20277;-54
2023/01/01 01:04:53;;;;;;;5.50;5.00;;;;;17.20;99918.00;;;;2069688;28;20246;-54
2023/01/01 01:05:59;;;;;;;4.80;4.30;;;;;17.20;99920.00;;;;2070297;28;20445;-54
2023/01/01 01:06:59;;;;;;;5.85;5.25;;;;;17.20;99930.00;;;;2070208;28;20225;-54
2023/01/01 01:07:59;;;;;;;5.30;4.80;;;;;17.20;99913.00;;;;2070360;28;20235;-54
2023/01/01 01:09:00;;;;;;;4.80;4.40;;;;;17.20;99919.00;;;;2070292;28;20219;-54
2023/01/01 01:10:00;;;;;;;5.27;4.87;;;;;17.20;99922.00;;;;2070258;28;20227;-53
2023/01/01 01:11:33;;;;;;;6.00;5.50;;;;;17.20;99920.00;;;;2070651;28;20220;-53
2023/01/01 01:12:33;;;;;;;5.30;4.90;;;;;17.20;99923.00;;;;2065142;28;20281;-54
2023/01/01 01:13:34;;;;;;;5.10;4.60;;;;;17.20;99922.00;;;;2070276;28;20219;-54
2023/01/01 01:14:34;;;;;;;6.17;5.60;;;;;17.20;99918.00;;;;2061861;28;20220;-54
2023/01/01 01:15:34;;;;;;;5.93;5.33;;;;;17.20;99903.00;;;;2061687;28;20475;-54
2023/01/01 01:16:35;;;;;;;4.83;4.40;;;;;17.20;99912.00;;;;2070471;28;20210;-54
2023/01/01 01:17:35;;;;;;;6.13;5.20;;;;;17.20;99909.00;;;;2070609;28;20221;-54
2023/01/01 01:18:36;;;;;;;6.57;5.97;;;;;17.20;99915.00;;;;2070440;28;20230;-54
2023/01/01 01:19:36;;;;;;;6.27;5.77;;;;;17.20;99915.00;;;;2070158;28;20236;-54
2023/01/01 01:20:36;;;;;;;6.37;5.77;;;;;17.20;99922.00;;;;2070537;28;20578;-54
2023/01/01 01:21:36;;;;;;;6.23;5.63;;;;;17.20;99926.00;;;;2070461;28;20262;-54
2023/01/01 01:22:37;;;;;;;6.03;5.43;;;;;17.20;99929.00;;;;2069302;28;20282;-54
2023/01/01 01:23:38;;;;;;;6.60;6.00;;;;;17.20;99939.00;;;;2070168;28;20261;-54
2023/01/01 01:24:38;;;;;;;7.70;5.83;;;;;17.20;99932.00;;;;2070272;28;20460;-54
2023/01/01 01:25:38;;;;;;;6.97;6.27;;;;;17.20;99930.00;;;;2070361;28;20218;-54
2023/01/01 01:26:39;;;;;;;5.80;5.30;;;;;17.20;99935.00;;;;2070709;28;20211;-54
2023/01/01 01:27:39;;;;;;;7.00;6.40;;;;;17.20;99945.00;;;;2070509;28;20256;-54
2023/01/01 01:28:40;;;;;;;6.50;5.90;;;;;17.20;99936.00;;;;2064345;28;20250;-54
2023/01/01 01:29:40;;;;;;;5.93;5.33;;;;;17.20;99936.00;;;;2062217;28;20310;-54
2023/01/01 01:30:40;;;;;;;6.57;5.97;;;;;17.20;99928.00;;;;2062528;28;21022;-54
2023/01/01 01:31:41;;;;;;;5.83;5.33;;;;;17.20;99931.00;;;;2062583;28;20211;-54
2023/01/01 01:32:41;;;;;;;6.90;6.27;;;;;17.20;99939.00;;;;2062133;28;20211;-58
2023/01/01 01:33:42;;;;;;;5.90;5.40;;;;;17.20;99935.00;;;;2062312;28;20208;-58
2023/01/01 01:34:42;;;;;;;6.60;6.00;;;;;17.20;99935.00;;;;2062380;28;20279;-55
2023/01/01 01:35:49;;;;;;;6.20;5.70;;;;;17.20;99931.00;;;;2062201;28;20209;-55
2023/01/01 01:36:52;;;;;;;6.88;6.28;;;;;17.20;99934.00;;;;2065371;28;20211;-55
2023/01/01 01:37:52;;;;;;;6.25;5.70;;;;;17.20;99932.00;;;;2070455;28;20550;-55
2023/01/01 01:38:53;;;;;;;5.60;5.10;;;;;17.20;99934.00;;;;2070528;28;20577;-55
2023/01/01 01:39:53;;;;;;;5.75;5.25;;;;;17.20;99937.00;;;;2070210;28;20299;-55
2023/01/01 01:40:54;;;;;;;6.97;6.30;;;;;17.10;99944.00;;;;2070187;28;20212;-54
2023/01/01 01:41:54;;;;;;;7.03;6.43;;;;;17.20;99941.00;;;;2062408;28;20215;-54
2023/01/01 01:42:54;;;;;;;7.00;6.30;;;;;17.20;99939.00;;;;2062390;28;20217;-55
2023/01/01 01:43:56;;;;;;;5.83;5.30;;;;;17.20;99944.00;;;;2062448;28;20247;-54
2023/01/01 01:44:57;;;;;;;6.60;6.00;;;;;17.20;99948.00;;;;2061572;28;20216;-54
2023/01/01 01:46:05;;;;;;;6.00;5.50;;;;;17.20;99941.00;;;;2061602;28;20308;-54
2023/01/01 01:47:07;;;;;;;6.72;6.13;;;;;17.20;99943.00;;;;2061641;28;20598;-54
2023/01/01 01:48:08;;;;;;;6.82;6.22;;;;;17.20;99939.00;;;;2061532;28;20604;-54
2023/01/01 01:49:13;;;;;;;6.63;6.13;;;;;17.20;99938.00;;;;2061719;28;20351;-54
2023/01/01 01:50:22;;;;;;;7.05;6.35;;;;;17.20;99945.00;;;;2052822;28;20270;-54
2023/01/01 01:51:26;;;;;;;8.60;6.88;;;;;17.20;99897.00;;;;2053889;28;20583;-55
2023/01/01 01:52:27;;;;;;;6.25;5.75;;;;;17.20;99947.00;;;;2061350;28;20225;-54
2023/01/01 01:53:28;;;;;;;7.20;6.60;;;;;17.20;99939.00;;;;2061644;28;20825;-54
2023/01/01 01:54:29;;;;;;;6.90;6.30;;;;;17.20;99936.00;;;;2061370;28;20240;-55
2023/01/01 01:55:31;;;;;;;7.17;6.57;;;;;17.20;99958.00;;;;2061674;28;20735;-55
2023/01/01 01:56:47;;;;;;;6.72;6.00;;;;;17.20;99962.00;;;;2059301;28;20303;-54
2023/01/01 01:57:47;;;;;;;7.18;6.55;;;;;17.20;99952.00;;;;2061345;28;20223;-55
2023/01/01 01:58:48;;;;;;;6.70;6.10;;;;;17.20;99956.00;;;;2063053;28;20228;-55
2023/01/01 01:59:49;;;;;;;6.73;6.03;;;;;17.20;99960.00;;;;2069518;28;20265;-55
2023/01/01 02:00:50;;;;;;;6.65;6.05;;;;;17.20;99958.00;;;;2061510;28;20223;-55
2023/01/01 02:01:50;;;;;;;6.63;6.03;;;;;17.20;99966.00;;;;2051277;28;20217;-55
2023/01/01 02:03:01;;;;;;;6.93;6.23;;;;;17.20;99963.00;;;;2053681;28;20217;-55
2023/01/01 02:04:01;;;;;;;5.97;5.40;;;;;17.20;99978.00;;;;2062761;28;20305;-54
2023/01/01 02:05:02;;;;;;;6.50;6.00;;;;;17.20;99970.00;;;;2061241;28;20212;-54
2023/01/01 02:06:02;;;;;;;6.27;5.77;;;;;17.20;99972.00;;;;2061577;28;20199;-54
2023/01/01 02:07:03;;;;;;;6.60;6.00;;;;;17.20;99974.00;;;;2061322;28;20820;-54
2023/01/01 02:08:03;;;;;;;6.50;5.90;;;;;17.20;99967.00;;;;2061342;28;20207;-54
2023/01/01 02:09:04;;;;;;;6.67;6.07;;;;;17.20;99973.00;;;;2061365;28;20576;-54
2023/01/01 02:10:05;;;;;;;6.93;6.33;;;;;17.20;99975.00;;;;2061057;28;20799;-54
2023/01/01 02:11:05;;;;;;;6.93;6.33;;;;;17.20;99972.00;;;;2061313;28;20680;-55
2023/01/01 02:12:05;;;;;;;6.80;6.20;;;;;17.20;99967.00;;;;2069732;28;20924;-55
2023/01/01 02:13:06;;;;;;;7.10;6.40;;;;;17.20;99968.00;;;;2069665;28;20904;-54
2023/01/01 02:14:06;;;;;;;7.40;6.60;;;;;17.20;99959.00;;;;2061252;28;20220;-54
2023/01/01 02:15:07;;;;;;;7.40;6.70;;;;;17.20;99959.00;;;;2069469;28;20682;-54
2023/01/01 02:16:24;;;;;;;6.47;5.97;;;;;17.20;99959.00;;;;2069365;28;23069;-54
2023/01/01 02:17:32;;;;;;;6.50;5.95;;;;;17.20;99967.00;;;;2062947;28;20982;-54
2023/01/01 02:18:42;;;;;;;6.60;6.00;;;;;17.20;99950.00;;;;2061946;28;21093;-54
2023/01/01 02:20:07;;;;;;;6.65;6.05;;;;;17.20;99968.00;;;;2062280;28;20751;-54
2023/01/01 02:21:11;;;;;;;7.18;6.50;;;;;17.20;99958.00;;;;2065702;28;20731;-54
2023/01/01 02:22:27;;;;;;;6.85;6.15;;;;;17.20;99964.00;;;;2061487;28;20239;-55
2023/01/01 02:23:33;;;;;;;7.10;6.45;;;;;17.20;99957.00;;;;2055012;28;20216;-55
2023/01/01 02:24:41;;;;;;;7.20;6.60;;;;;17.20;99965.00;;;;2055052;28;20217;-54
2023/01/01 02:26:02;;;;;;;6.80;6.30;;;;;17.20;99962.00;;;;2062783;28;20765;-54
2023/01/01 02:27:04;;;;;;;6.75;6.15;;;;;17.20;99965.00;;;;2069493;28;20207;-55
2023/01/01 02:28:22;;;;;;;6.60;6.00;;;;;17.20;99965.00;;;;2069284;28;20215;-55
2023/01/01 02:29:57;;;;;;;7.13;6.55;;;;;17.20;99965.00;;;;2073063;28;20216;-55
2023/01/01 02:30:57;;;;;;;7.57;6.88;;;;;17.20;99960.00;;;;2068845;28;20222;-55
2023/01/01 02:32:04;;;;;;;6.53;5.93;;;;;17.20;99963.00;;;;2063352;28;20294;-55
2023/01/01 02:33:08;;;;;;;7.20;6.57;;;;;17.10;99968.00;;;;2069454;28;20203;-54
2023/01/01 02:34:09;;;;;;;7.40;6.70;;;;;17.20;99954.00;;;;2069021;28;20705;-55
2023/01/01 02:36:32;;;;;;;7.30;6.65;;;;;17.20;99964.00;;;;2064181;28;20219;-55
2023/01/01 02:37:32;;;;;;;6.80;6.17;;;;;17.20;99960.00;;;;2063754;28;20234;-54
2023/01/01 02:38:36;;;;;;;6.70;6.00;;;;;17.20;99960.00;;;;2061250;28;20219;-54
2023/01/01 02:39:38;;;;;;;6.45;5.93;;;;;17.20;99964.00;;;;2053327;28;20224;-55
2023/01/01 02:40:41;;;;;;;7.05;6.45;;;;;17.20;99966.00;;;;2052744;28;20324;-55
2023/01/01 02:41:45;;;;;;;8.02;7.32;;;;;17.20;99967.00;;;;2059986;28;20342;-55
2023/01/01 02:42:46;;;;;;;7.13;6.53;;;;;17.20;99976.00;;;;2048898;28;20788;-54
2023/01/01 02:43:46;;;;;;;6.40;5.80;;;;;17.10;99969.00;;;;2050648;28;20223;-54
2023/01/01 02:44:47;;;;;;;6.27;5.73;;;;;17.20;99960.00;;;;2055232;28;20223;-54
2023/01/01 02:45:48;;;;;;;7.40;6.70;;;;;17.20;99961.00;;;;2053577;28;20216;-54
2023/01/01 02:46:48;;;;;;;7.70;7.00;;;;;17.20;99963.00;;;;2053276;28;20216;-54
2023/01/01 02:47:48;;;;;;;7.17;6.57;;;;;17.20;99958.00;;;;2061348;28;20212;-54
2023/01/01 02:48:50;;;;;;;7.00;6.40;;;;;17.20;99971.00;;;;2061859;28;20242;-54
2023/01/01 02:49:54;;;;;;;7.28;6.68;;;;;17.20;99972.00;;;;2061873;28;20210;-54
2023/01/01 02:50:54;;;;;;;7.68;7.03;;;;;17.20;99970.00;;;;2065669;28;20694;-54
2023/01/01 02:52:08;;;;;;;6.80;6.20;;;;;17.20;99969.00;;;;2068803;28;20211;-54
2023/01/01 02:53:12;;;;;;;6.88;6.28;;;;;17.20;99972.00;;;;2069436;28;20206;-54
2023/01/01 02:54:18;;;;;;;6.97;6.38;;;;;17.20;99972.00;;;;2069344;28;20305;-54
2023/01/01 02:55:26;;;;;;;7.43;6.78;;;;;17.20;99965.00;;;;2069116;28;20207;-54
2023/01/01 02:56:52;;;;;;;7.45;6.80;;;;;17.20;99977.00;;;;2069849;28;20606;-55
2023/01/01 03:01:30;;;;;;;7.18;6.57;;;;;17.20;99968.00;;;;2069855;28;20218;-54
2023/01/01 03:02:52;;;;;;;7.15;6.50;;;;;17.20;99962.00;;;;2068533;28;20258;-56
2023/01/01 03:04:01;;;;;;;6.95;6.25;;;;;17.20;99976.00;;;;2063885;28;20282;-54
2023/01/01 03:06:21;;;;;;;7.30;6.70;;;;;17.20;99973.00;;;;2062099;28;20213;-55
2023/01/01 03:07:28;;;;;;;7.28;6.68;;;;;17.20;99977.00;;;;2061557;28;20211;-55
2023/01/01 03:08:59;;;;;;;6.72;6.15;;;;;17.20;99983.00;;;;2063848;28;20241;-52
2023/01/01 03:10:26;;;;;;;6.40;5.90;;;;;17.20;99976.00;;;;2059083;28;20199;-52
2023/01/01 03:11:34;;;;;;;6.97;6.28;;;;;17.20;99987.00;;;;2058389;28;20215;-53
2023/01/01 03:12:58;;;;;;;7.25;6.65;;;;;17.20;99988.00;;;;2066012;28;20212;-52
2023/01/01 03:14:26;;;;;;;6.95;6.35;;;;;17.10;99976.00;;;;2068658;28;20271;-52
2023/01/01 03:15:35;;;;;;;7.28;6.63;;;;;17.20;99981.00;;;;2058258;28;20395;-55
2023/01/01 03:16:42;;;;;;;6.97;6.03;;;;;17.20;99977.00;;;;2069853;28;20225;-52
2023/01/01 03:18:17;;;;;;;6.90;6.30;;;;;17.20;99996.00;;;;2068950;28;20211;-52
2023/01/01 03:19:25;;;;;;;6.50;6.00;;;;;17.20;99987.00;;;;2064201;28;20261;-52
2023/01/01 03:20:27;;;;;;;6.68;6.07;;;;;17.20;99993.00;;;;2050588;28;20220;-52
2023/01/01 03:21:27;;;;;;;5.97;5.47;;;;;17.20;100010.00;;;;2053207;28;20664;-52
2023/01/01 03:22:30;;;;;;;6.03;5.50;;;;;17.20;99992.00;;;;2052287;28;20521;-52
2023/01/01 03:23:34;;;;;;;6.82;6.22;;;;;17.20;99984.00;;;;2045094;28;20683;-53
2023/01/01 03:24:44;;;;;;;6.38;5.80;;;;;17.20;99990.00;;;;2044840;28;20225;-52
2023/01/01 03:25:47;;;;;;;6.50;5.90;;;;;17.20;99984.00;;;;2047747;28;20761;-52
2023/01/01 03:26:48;;;;;;;7.18;6.57;;;;;17.20;99973.00;;;;2053268;28;20299;-52
2023/01/01 03:27:51;;;;;;;7.15;6.22;;;;;17.20;99983.00;;;;2053218;28;20316;-52
2023/01/01 03:28:54;;;;;;;6.55;6.00;;;;;17.20;99981.00;;;;2053551;28;20300;-52
2023/01/01 03:29:56;;;;;;;7.20;6.57;;;;;17.20;99986.00;;;;2055201;28;20227;-52
2023/01/01 03:30:56;;;;;;;6.57;6.05;;;;;17.20;99981.00;;;;2065486;28;20274;-52
2023/01/01 03:31:57;;;;;;;6.30;5.80;;;;;17.20;99982.00;;;;2068439;28;20226;-52
2023/01/01 03:32:59;;;;;;;6.50;5.90;;;;;17.20;99985.00;;;;2061256;28;20264;-52
2023/01/01 03:34:02;;;;;;;7.13;6.53;;;;;17.20;99977.00;;;;2059957;28;20215;-55
2023/01/01 03:35:03;;;;;;;6.32;5.82;;;;;17.20;99981.00;;;;2068207;28;20212;-53
2023/01/01 03:36:10;;;;;;;6.60;6.00;;;;;17.20;99994.00;;;;2052739;28;20627;-53
2023/01/01 03:37:13;;;;;;;6.40;5.90;;;;;17.20;99989.00;;;;2053831;28;20639;-52
2023/01/01 03:38:22;;;;;;;6.03;5.53;;;;;17.20;99995.00;;;;2061965;28;20603;-52
2023/01/01 03:39:32;;;;;;;6.25;5.75;;;;;17.20;99997.00;;;;2069752;28;20364;-52
2023/01/01 03:40:33;;;;;;;6.68;6.07;;;;;17.20;99985.00;;;;2068779;28;20714;-52
2023/01/01 03:41:59;;;;;;;5.95;5.45;;;;;17.20;99998.00;;;;2053882;28;20626;-52
2023/01/01 03:43:04;;;;;;;5.72;5.22;;;;;17.20;99993.00;;;;2055969;28;20224;-52
2023/01/01 03:44:08;;;;;;;6.32;5.82;;;;;17.20;100001.00;;;;2061103;28;20262;-52
2023/01/01 03:45:15;;;;;;;6.07;5.57;;;;;17.20;99999.00;;;;2061062;28;20219;-52
2023/01/01 03:46:16;;;;;;;6.25;5.75;;;;;17.20;99995.00;;;;2065619;28;20405;-52
2023/01/01 03:47:16;;;;;;;5.90;5.40;;;;;17.20;100007.00;;;;2060973;28;20270;-52
2023/01/01 03:48:16;;;;;;;7.03;6.43;;;;;17.20;99997.00;;;;2053119;28;20976;-52
2023/01/01 03:49:17;;;;;;;6.73;6.13;;;;;17.20;99996.00;;;;2069024;28;20274;-52
2023/01/01 03:50:17;;;;;;;6.53;5.93;;;;;17.20;99995.00;;;;2069679;28;20242;-52
2023/01/01 03:51:39;;;;;;;6.80;6.20;;;;;17.20;99995.00;;;;2069512;28;20211;-52
2023/01/01 03:53:11;;;;;;;6.63;6.03;;;;;17.20;100003.00;;;;2073162;28;20263;-52
2023/01/01 03:54:52;;;;;;;6.55;5.95;;;;;17.20;99997.00;;;;2071211;28;20215;-52
2023/01/01 03:56:06;;;;;;;6.38;5.88;;;;;17.20;100000.00;;;;2071236;28;20226;-52
2023/01/01 03:57:21;;;;;;;6.13;5.63;;;;;17.20;100016.00;;;;2062177;28;20323;-52
2023/01/01 03:58:38;;;;;;;5.63;5.13;;;;;17.20;100010.00;;;;2065093;28;20306;-52
2023/01/01 03:59:49;;;;;;;6.03;5.53;;;;;17.20;100010.00;;;;2062211;28;20224;-52
2023/01/01 04:00:52;;;;;;;5.85;5.28;;;;;17.20;100008.00;;;;2065249;28;20803;-52
2023/01/01 04:01:56;;;;;;;6.25;5.65;;;;;17.20;100017.00;;;;2062527;28;20252;-52
2023/01/01 04:03:02;;;;;;;5.90;5.40;;;;;17.20;100014.00;;;;2063398;28;21281;-52
2023/01/01 04:04:03;;;;;;;5.80;5.30;;;;;17.20;100001.00;;;;2062412;28;20352;-52
2023/01/01 04:05:03;;;;;;;5.97;5.47;;;;;17.20;99998.00;;;;2054440;28;20327;-52
2023/01/01 04:06:04;;;;;;;5.73;5.23;;;;;17.20;100012.00;;;;2062535;28;20326;-52
2023/01/01 04:07:04;;;;;;;7.03;6.43;;;;;17.20;100019.00;;;;2057021;28;20214;-52
2023/01/01 04:08:04;;;;;;;6.50;6.00;;;;;17.20;100019.00;;;;2062472;28;20217;-52
2023/01/01 04:09:08;;;;;;;5.97;5.47;;;;;17.20;100023.00;;;;2062330;28;20691;-52
2023/01/01 04:10:18;;;;;;;6.15;5.45;;;;;17.20;100033.00;;;;2062113;28;20665;-53
2023/01/01 04:12:49;;;;;;;5.75;5.25;;;;;17.20;100033.00;;;;2073150;28;20215;-53
2023/01/01 04:13:49;;;;;;;5.90;5.40;;;;;17.20;100033.00;;;;2071160;28;20699;-52
2023/01/01 04:14:50;;;;;;;6.20;5.70;;;;;17.20;100031.00;;;;2068838;28;20231;-52
2023/01/01 04:15:50;;;;;;;6.03;5.60;;;;;17.20;100044.00;;;;2070302;28;20301;-52
2023/01/01 04:16:50;;;;;;;5.97;5.47;;;;;17.20;100036.00;;;;2070389;28;20872;-52
2023/01/01 04:17:51;;;;;;;5.73;5.13;;;;;17.20;100044.00;;;;2069522;28;20222;-52
2023/01/01 04:18:51;;;;;;;5.70;5.30;;;;;17.20;100048.00;;;;2070839;28;20251;-52
2023/01/01 04:19:51;;;;;;;5.77;5.27;;;;;17.20;100048.00;;;;2070762;28;20976;-52
2023/01/01 04:20:52;;;;;;;6.20;5.70;;;;;17.20;100028.00;;;;2070697;28;20764;-52
2023/01/01 04:21:52;;;;;;;5.20;4.80;;;;;17.20;100029.00;;;;2070622;28;20227;-52
2023/01/01 04:22:59;;;;;;;5.53;5.00;;;;;17.20;100037.00;;;;2071166;28;20281;-52
2023/01/01 04:23:59;;;;;;;5.72;5.22;;;;;17.20;100028.00;;;;2070456;28;20214;-52
2023/01/01 04:24:59;;;;;;;5.83;5.33;;;;;17.20;100046.00;;;;2061830;28;20215;-52
2023/01/01 04:26:00;;;;;;;5.20;4.80;;;;;17.20;100036.00;;;;2070442;28;20652;-52
2023/01/01 04:27:00;;;;;;;5.63;5.13;;;;;17.20;100030.00;;;;2071077;28;20761;-52
2023/01/01 04:28:03;;;;;;;6.57;5.10;;;;;17.20;100021.00;;;;2071102;28;20689;-52
2023/01/01 04:29:03;;;;;;;7.18;5.70;;;;;17.20;100027.00;;;;2070916;28;20212;-52
2023/01/01 04:30:05;;;;;;;6.50;5.90;;;;;17.20;100029.00;;;;2068742;28;20301;-52
2023/01/01 04:31:06;;;;;;;5.40;4.90;;;;;17.20;100037.00;;;;2062821;28;20282;-52
2023/01/01 04:32:06;;;;;;;5.80;5.37;;;;;17.20;100035.00;;;;2062395;28;20267;-52
2023/01/01 04:33:06;;;;;;;6.40;5.90;;;;;17.20;100016.00;;;;2062943;28;20243;-52
2023/01/01 04:34:07;;;;;;;4.93;4.50;;;;;17.20;100032.00;;;;2062921;28;20263;-52
2023/01/01 04:35:08;;;;;;;5.43;4.97;;;;;17.20;100025.00;;;;2062929;28;20588;-52
2023/01/01 04:36:08;;;;;;;6.07;5.53;;;;;17.20;100026.00;;;;2062975;28;20308;-52
2023/01/01 04:37:09;;;;;;;5.70;5.20;;;;;17.20;100031.00;;;;2062934;28;20216;-52
2023/01/01 04:38:13;;;;;;;5.50;5.00;;;;;17.20;100029.00;;;;2062924;28;20239;-52
2023/01/01 04:39:13;;;;;;;5.38;4.97;;;;;17.20;100028.00;;;;2062096;28;20213;-52
2023/01/01 04:40:14;;;;;;;5.53;5.03;;;;;17.20;100023.00;;;;2062083;28;20842;-53
2023/01/01 04:41:14;;;;;;;5.67;5.17;;;;;17.20;100029.00;;;;2062618;28;20750;-53
2023/01/01 04:42:14;;;;;;;5.70;5.20;;;;;17.20;100032.00;;;;2062305;28;20324;-52
2023/01/01 04:43:14;;;;;;;5.50;5.10;;;;;17.20;100041.00;;;;2063152;28;20216;-53
2023/01/01 04:44:15;;;;;;;5.13;4.73;;;;;17.20;100040.00;;;;2062856;28;21110;-52
2023/01/01 04:45:16;;;;;;;6.07;5.57;;;;;17.20;100040.00;;;;2063067;28;20832;-52
2023/01/01 04:46:18;;;;;;;5.82;5.32;;;;;17.20;100037.00;;;;2062954;28;20208;-53
2023/01/01 04:47:18;;;;;;;5.20;4.80;;;;;17.20;100034.00;;;;2062897;28;20302;-52
2023/01/01 04:48:18;;;;;;;5.80;5.30;;;;;17.20;100042.00;;;;2061682;28;20747;-52
2023/01/01 04:49:19;;;;;;;6.67;5.13;;;;;17.20;100001.00;;;;2063003;28;20575;-52
2023/01/01 04:50:19;;;;;;;5.83;5.23;;;;;17.20;100050.00;;;;2062749;28;20587;-52
2023/01/01 04:51:20;;;;;;;5.03;4.63;;;;;17.20;100033.00;;;;2062435;28;20211;-52
2023/01/01 04:52:20;;;;;;;5.33;4.83;;;;;17.20;100034.00;;;;2061769;28;20204;-52
2023/01/01 04:53:20;;;;;;;5.00;4.57;;;;;17.20;100040.00;;;;2062194;28;20212;-52
2023/01/01 04:54:21;;;;;;;5.70;5.23;;;;;17.20;100044.00;;;;2062963;28;20206;-52
2023/01/01 04:55:21;;;;;;;6.20;5.60;;;;;17.20;100048.00;;;;2062832;28;20235;-52
2023/01/01 04:56:22;;;;;;;5.17;4.77;;;;;17.20;100047.00;;;;2062849;28;20205;-52
2023/01/01 04:57:22;;;;;;;4.47;4.07;;;;;17.20;100039.00;;;;2062792;28;20209;-52
2023/01/01 04:58:23;;;;;;;5.63;5.23;;;;;17.20;100050.00;;;;2062787;28;20571;-51
2023/01/01 04:59:23;;;;;;;5.17;4.77;;;;;17.20;100062.00;;;;2062847;28;20704;-52
2023/01/01 05:00:23;;;;;;;4.93;4.53;;;;;17.20;100056.00;;;;2062726;28;20214;-52
2023/01/01 05:01:25;;;;;;;4.77;4.43;;;;;17.20;100059.00;;;;2062455;28;20204;-52
2023/01/01 05:02:25;;;;;;;5.13;4.72;;;;;17.20;100054.00;;;;2061287;28;20259;-52
2023/01/01 05:03:26;;;;;;;5.10;4.70;;;;;17.20;100068.00;;;;2061354;28;20213;-52
2023/01/01 05:04:26;;;;;;;5.10;4.70;;;;;17.20;100063.00;;;;2062824;28;20212;-52
2023/01/01 05:05:27;;;;;;;5.27;4.83;;;;;17.20;100059.00;;;;2065897;28;20217;-52
2023/01/01 05:06:27;;;;;;;5.50;5.00;;;;;17.20;100065.00;;;;2070870;28;20214;-52
2023/01/01 05:07:28;;;;;;;4.90;4.50;;;;;17.20;100062.00;;;;2070718;28;20220;-52
2023/01/01 05:08:29;;;;;;;5.37;4.97;;;;;17.20;100061.00;;;;2069963;28;20504;-52
2023/01/01 05:09:29;;;;;;;4.97;4.57;;;;;17.20;100054.00;;;;2069986;28;20274;-51
2023/01/01 05:10:30;;;;;;;5.33;4.87;;;;;17.20;100048.00;;;;2070776;28;20298;-52
2023/01/01 05:11:30;;;;;;;4.83;4.43;;;;;17.20;100036.00;;;;2070653;28;20766;-52
2023/01/01 05:12:31;;;;;;;5.00;4.60;;;;;17.20;100053.00;;;;2070059;28;20700;-52
2023/01/01 05:13:32;;;;;;;5.30;4.80;;;;;17.20;100050.00;;;;2070640;28;20208;-52
2023/01/01 05:14:33;;;;;;;5.20;4.70;;;;;17.20;100047.00;;;;2070142;28;20302;-52
2023/01/01 05:15:35;;;;;;;4.33;3.93;;;;;17.10;100054.00;;;;2070106;28;20208;-52
2023/01/01 05:16:36;;;;;;;5.20;4.80;;;;;17.20;100055.00;;;;2070610;28;20226;-52
2023/01/01 05:17:37;;;;;;;5.05;4.65;;;;;17.20;100056.00;;;;2070307;28;20211;-52
2023/01/01 05:18:37;;;;;;;4.80;4.40;;;;;17.20;100053.00;;;;2070554;28;20216;-51
2023/01/01 05:19:37;;;;;;;5.20;4.70;;;;;17.20;100059.00;;;;2070622;28;20735;-52
2023/01/01 05:20:38;;;;;;;5.10;4.70;;;;;17.20;100047.00;;;;2070592;28;20599;-52
2023/01/01 05:21:39;;;;;;;4.80;4.33;;;;;17.20;100051.00;;;;2070462;28;20220;-52
2023/01/01 05:22:39;;;;;;;4.78;4.38;;;;;17.20;100047.00;;;;2070081;28;20380;-52
2023/01/01 05:23:39;;;;;;;5.03;4.63;;;;;17.20;100013.00;;;;2070603;28;20703;-51
2023/01/01 05:24:40;;;;;;;5.10;4.70;;;;;17.20;100057.00;;;;2070358;28;20729;-52